createdAt,value
2023-05-19T00:00:10.927Z,0.00
2023-05-19T00:01:10.931Z,0.00
2023-05-19T00:02:10.974Z,0.00
2023-05-19T00:03:11.045Z,0.00
2023-05-19T00:04:10.961Z,0.00
2023-05-19T00:05:10.966Z,0.00
2023-05-19T00:06:11.024Z,0.00
2023-05-19T00:07:10.882Z,0.00
2023-05-19T00:08:10.976Z,0.00
2023-05-19T00:09:10.904Z,0.00
2023-05-19T00:10:10.895Z,0.00
2023-05-19T00:11:10.875Z,0.00
2023-05-19T00:12:10.908Z,0.00
2023-05-19T00:13:10.869Z,0.00
2023-05-19T00:14:10.908Z,0.00
2023-05-19T00:15:10.828Z,0.00
2023-05-19T00:16:10.847Z,0.00
2023-05-19T00:17:10.803Z,0.00
2023-05-19T00:18:10.956Z,0.00
2023-05-19T00:19:10.927Z,0.00
2023-05-19T00:20:10.894Z,0.00
2023-05-19T00:21:10.960Z,0.00
2023-05-19T00:22:10.866Z,0.00
2023-05-19T00:23:11.308Z,0.00
2023-05-19T00:25:30.953Z,0.00
2023-05-19T00:27:50.427Z,0.00
2023-05-19T00:32:09.201Z,0.00
2023-05-19T00:33:09.041Z,0.00
2023-05-19T00:34:08.912Z,0.00
2023-05-19T00:35:09.517Z,0.00
2023-05-19T00:36:08.930Z,0.00
2023-05-19T00:37:09.543Z,0.00
2023-05-19T00:38:08.928Z,0.00
2023-05-19T00:39:08.863Z,0.00
2023-05-19T00:40:08.944Z,0.00
2023-05-19T00:41:08.887Z,0.00
2023-05-19T00:42:09.521Z,0.00
2023-05-19T00:43:08.951Z,0.00
2023-05-19T00:44:09.376Z,0.00
2023-05-19T00:45:08.865Z,0.00
2023-05-19T00:46:08.919Z,0.00
2023-05-19T00:47:08.873Z,0.00
2023-05-19T00:48:08.821Z,0.00
2023-05-19T00:49:08.791Z,0.00
2023-05-19T00:50:08.753Z,0.00
2023-05-19T00:51:09.521Z,0.00
2023-05-19T00:52:08.755Z,0.00
2023-05-19T00:53:08.798Z,0.00
2023-05-19T00:54:08.743Z,0.00
2023-05-19T00:55:08.740Z,0.00
2023-05-19T00:58:18.333Z,0.00
2023-05-19T01:06:07.014Z,0.00
2023-05-19T01:07:06.637Z,0.00
2023-05-19T01:08:06.660Z,0.00
2023-05-19T01:09:06.661Z,0.00
2023-05-19T01:10:06.664Z,0.00
2023-05-19T01:12:26.915Z,0.00
2023-05-19T01:18:13.879Z,0.00
2023-05-19T01:19:01.468Z,0.00
2023-05-19T01:20:01.417Z,0.00
2023-05-19T01:21:01.421Z,0.00
2023-05-19T01:22:01.524Z,0.00
2023-05-19T01:23:03.205Z,0.00
2023-05-19T01:24:01.622Z,0.00
2023-05-19T01:26:20.915Z,0.00
2023-05-19T01:30:30.442Z,0.00
2023-05-19T01:31:30.229Z,0.00
2023-05-19T01:34:25.132Z,0.00
2023-05-19T01:35:25.378Z,0.00
2023-05-19T01:36:31.018Z,0.00
2023-05-19T01:39:02.023Z,0.00
2023-05-19T01:43:21.414Z,0.00
2023-05-19T01:46:29.634Z,0.00
2023-05-19T01:48:49.613Z,0.00
2023-05-19T01:49:48.738Z,0.00
2023-05-19T01:50:49.694Z,0.00
2023-05-19T01:51:48.950Z,0.00
2023-05-19T01:52:48.638Z,0.00
2023-05-19T01:55:47.507Z,0.00
2023-05-19T01:58:06.406Z,0.00
2023-05-19T01:59:06.401Z,0.00
2023-05-19T02:00:06.335Z,0.00
2023-05-19T02:01:06.407Z,0.00
2023-05-19T02:02:06.383Z,0.00
2023-05-19T02:03:06.347Z,0.00
2023-05-19T02:04:06.370Z,0.00
2023-05-19T02:05:06.935Z,0.00
2023-05-19T02:07:25.981Z,0.00
2023-05-19T02:10:52.925Z,0.00
2023-05-19T02:11:52.174Z,0.00
2023-05-19T02:12:52.150Z,0.00
2023-05-19T02:16:05.337Z,0.00
2023-05-19T02:16:52.243Z,0.00
2023-05-19T02:17:52.434Z,0.00
2023-05-19T02:18:52.329Z,0.00
2023-05-19T02:19:52.265Z,0.00
2023-05-19T02:20:52.340Z,0.00
2023-05-19T02:21:52.280Z,0.00
2023-05-19T02:22:52.403Z,0.00
2023-05-19T02:23:52.252Z,0.00
2023-05-19T02:24:52.848Z,0.00
2023-05-19T02:25:52.300Z,0.00
2023-05-19T02:26:52.198Z,0.00
2023-05-19T02:27:53.195Z,0.00
2023-05-19T02:28:52.181Z,0.00
2023-05-19T02:29:52.203Z,0.00
2023-05-19T02:30:52.218Z,0.00
2023-05-19T02:31:52.212Z,0.00
2023-05-19T02:32:52.153Z,0.00
2023-05-19T02:33:52.150Z,0.00
2023-05-19T02:34:52.154Z,0.00
2023-05-19T02:35:52.176Z,0.00
2023-05-19T02:36:53.167Z,0.00
2023-05-19T02:37:52.917Z,0.00
2023-05-19T02:38:52.169Z,0.00
2023-05-19T02:39:52.777Z,0.00
2023-05-19T02:42:12.878Z,0.00
2023-05-19T02:44:32.527Z,0.00
2023-05-19T02:55:01.505Z,0.00
2023-05-19T03:05:07.998Z,0.00
2023-05-19T03:06:07.831Z,0.00
2023-05-19T03:07:07.785Z,0.00
2023-05-19T03:08:07.674Z,0.00
2023-05-19T03:09:07.676Z,0.00
2023-05-19T03:10:07.669Z,0.00
2023-05-19T03:11:07.684Z,0.00
2023-05-19T03:12:07.818Z,0.00
2023-05-19T03:13:07.638Z,0.00
2023-05-19T03:14:07.643Z,0.00
2023-05-19T03:15:07.637Z,0.00
2023-05-19T03:16:07.698Z,0.00
2023-05-19T03:17:07.772Z,0.00
2023-05-19T03:18:07.639Z,0.00
2023-05-19T03:19:07.592Z,0.00
2023-05-19T03:20:07.615Z,0.00
2023-05-19T03:21:07.635Z,0.00
2023-05-19T03:22:07.737Z,0.00
2023-05-19T03:23:07.741Z,0.00
2023-05-19T03:28:52.650Z,0.00
2023-05-19T03:32:02.122Z,0.00
2023-05-19T03:34:21.479Z,0.00
2023-05-19T03:35:21.549Z,0.00
2023-05-19T03:36:21.626Z,0.00
2023-05-19T03:37:21.446Z,0.00
2023-05-19T03:38:21.357Z,0.00
2023-05-19T03:39:21.410Z,0.00
2023-05-19T03:40:21.327Z,0.00
2023-05-19T03:41:21.378Z,0.00
2023-05-19T03:42:21.331Z,0.00
2023-05-19T03:43:21.395Z,5.00
2023-05-19T03:44:21.385Z,5.00
2023-05-19T03:45:21.311Z,5.00
2023-05-19T03:46:21.559Z,5.00
2023-05-19T03:47:21.315Z,5.00
2023-05-19T03:48:22.026Z,5.00
2023-05-19T03:49:21.292Z,5.00
2023-05-19T03:50:21.289Z,5.00
2023-05-19T03:51:21.332Z,5.00
2023-05-19T03:52:21.299Z,11.00
2023-05-19T03:53:21.307Z,11.00
2023-05-19T03:54:21.295Z,11.00
2023-05-19T03:55:21.313Z,11.00
2023-05-19T03:56:21.240Z,11.00
2023-05-19T03:57:22.292Z,11.00
2023-05-19T03:58:21.248Z,11.00
2023-05-19T03:59:21.220Z,11.00
2023-05-19T04:00:21.244Z,16.00
2023-05-19T04:01:21.220Z,16.00
2023-05-19T04:02:22.154Z,16.00
2023-05-19T04:03:21.420Z,16.00
2023-05-19T04:04:21.233Z,16.00
2023-05-19T04:05:21.202Z,22.00
2023-05-19T04:06:21.213Z,22.00
2023-05-19T04:07:21.149Z,22.00
2023-05-19T04:08:21.181Z,22.00
2023-05-19T04:09:21.158Z,22.00
2023-05-19T04:10:21.126Z,22.00
2023-05-19T04:11:21.125Z,28.00
2023-05-19T04:12:21.236Z,28.00
2023-05-19T04:13:21.209Z,28.00
2023-05-19T04:14:21.301Z,33.00
2023-05-19T04:15:21.308Z,33.00
2023-05-19T04:16:21.491Z,33.00
2023-05-19T04:17:21.459Z,33.00
2023-05-19T04:18:21.435Z,39.00
2023-05-19T04:19:21.549Z,39.00
2023-05-19T04:20:22.239Z,39.00
2023-05-19T04:21:21.699Z,39.00
2023-05-19T04:22:21.606Z,39.00
2023-05-19T04:23:21.614Z,39.00
2023-05-19T04:24:21.668Z,39.00
2023-05-19T04:25:21.738Z,45.00
2023-05-19T04:26:21.738Z,45.00
2023-05-19T04:27:21.783Z,45.00
2023-05-19T04:28:21.811Z,45.00
2023-05-19T04:29:21.894Z,45.00
2023-05-19T04:30:21.831Z,45.00
2023-05-19T04:31:21.972Z,45.00
2023-05-19T04:32:21.955Z,50.00
2023-05-19T04:33:21.982Z,50.00
2023-05-19T04:34:22.025Z,50.00
2023-05-19T04:35:22.092Z,50.00
2023-05-19T04:36:22.120Z,56.00
2023-05-19T04:41:32.661Z,56.00
2023-05-19T04:46:42.911Z,56.00
2023-05-19T04:49:54.082Z,61.00
2023-05-19T04:55:03.567Z,67.00
2023-05-19T04:56:03.349Z,73.00
2023-05-19T04:57:03.646Z,73.00
2023-05-19T05:02:46.895Z,73.00
2023-05-19T05:03:46.804Z,73.00
2023-05-19T05:04:52.341Z,73.00
2023-05-19T05:05:47.328Z,67.00
2023-05-19T05:12:08.947Z,67.00
2023-05-19T05:13:11.142Z,67.00
2023-05-19T05:15:28.390Z,67.00
2023-05-19T05:22:06.228Z,73.00
2023-05-19T05:23:06.020Z,73.00
2023-05-19T05:24:06.484Z,73.00
2023-05-19T05:27:21.305Z,73.00
2023-05-19T05:28:11.392Z,73.00
2023-05-19T05:29:11.859Z,73.00
2023-05-19T05:32:22.711Z,84.00
2023-05-19T05:34:42.516Z,95.00
2023-05-19T05:40:09.159Z,101.00
2023-05-19T05:41:08.915Z,101.00
2023-05-19T05:46:53.935Z,112.00
2023-05-19T05:49:28.315Z,123.00
2023-05-19T05:52:16.945Z,129.00
2023-05-19T05:57:53.843Z,135.00
2023-05-19T05:58:40.468Z,129.00
2023-05-19T05:59:40.466Z,129.00
2023-05-19T06:00:41.940Z,129.00
2023-05-19T06:03:01.063Z,129.00
2023-05-19T06:07:22.163Z,135.00
2023-05-19T06:08:12.031Z,135.00
2023-05-19T06:10:32.659Z,151.00
2023-05-19T06:13:31.016Z,191.00
2023-05-19T06:17:02.999Z,185.00
2023-05-19T06:18:02.602Z,191.00
2023-05-19T06:19:02.843Z,185.00
2023-05-19T06:20:02.571Z,185.00
2023-05-19T06:25:16.309Z,168.00
2023-05-19T06:26:16.072Z,163.00
2023-05-19T06:29:44.581Z,163.00
2023-05-19T06:30:31.313Z,163.00
2023-05-19T06:35:36.827Z,174.00
2023-05-19T06:40:37.588Z,219.00
2023-05-19T06:41:37.193Z,219.00
2023-05-19T06:42:37.039Z,213.00
2023-05-19T06:47:44.667Z,258.00
2023-05-19T06:52:04.351Z,275.00
2023-05-19T06:53:02.992Z,281.00
2023-05-19T06:54:03.216Z,281.00
2023-05-19T06:56:37.801Z,292.00
2023-05-19T06:57:24.850Z,292.00
2023-05-19T06:58:24.858Z,281.00
2023-05-19T06:59:24.861Z,270.00
2023-05-19T07:00:24.868Z,264.00
2023-05-19T07:01:25.107Z,253.00
2023-05-19T07:02:25.076Z,247.00
2023-05-19T07:03:24.997Z,241.00
2023-05-19T07:04:24.847Z,230.00
2023-05-19T07:05:24.887Z,219.00
2023-05-19T07:06:24.816Z,219.00
2023-05-19T07:07:24.814Z,225.00
2023-05-19T07:08:24.777Z,225.00
2023-05-19T07:09:24.721Z,230.00
2023-05-19T07:10:24.827Z,225.00
2023-05-19T07:11:24.800Z,225.00
2023-05-19T07:12:24.766Z,213.00
2023-05-19T07:13:27.232Z,202.00
2023-05-19T07:26:16.536Z,360.00
2023-05-19T07:27:01.775Z,365.00
2023-05-19T07:29:21.364Z,365.00
2023-05-19T07:30:21.413Z,354.00
2023-05-19T07:31:21.527Z,354.00
2023-05-19T07:32:21.584Z,348.00
2023-05-19T07:36:43.244Z,258.00
2023-05-19T07:37:42.528Z,247.00
2023-05-19T07:38:42.605Z,258.00
2023-05-19T07:39:43.134Z,275.00
2023-05-19T07:40:42.995Z,292.00
2023-05-19T07:41:42.624Z,337.00
2023-05-19T07:42:42.451Z,348.00
2023-05-19T07:43:42.482Z,416.00
2023-05-19T07:44:42.465Z,433.00
2023-05-19T07:45:42.514Z,523.00
2023-05-19T07:46:42.501Z,500.00
2023-05-19T07:47:43.470Z,748.00
2023-05-19T07:50:30.829Z,517.00
2023-05-19T07:52:50.473Z,472.00
2023-05-19T07:53:50.009Z,472.00
2023-05-19T07:54:50.259Z,523.00
2023-05-19T07:55:50.206Z,562.00
2023-05-19T07:56:50.037Z,596.00
2023-05-19T07:57:50.094Z,585.00
2023-05-19T07:58:50.033Z,545.00
2023-05-19T07:59:49.956Z,585.00
2023-05-19T08:00:50.042Z,601.00
2023-05-19T08:01:50.003Z,742.00
2023-05-19T08:02:50.075Z,860.00
2023-05-19T08:03:50.169Z,691.00
2023-05-19T08:04:50.092Z,405.00
2023-05-19T08:05:50.059Z,303.00
2023-05-19T08:06:49.901Z,281.00
2023-05-19T08:07:49.907Z,258.00
2023-05-19T08:08:49.905Z,253.00
2023-05-19T08:09:49.896Z,247.00
2023-05-19T08:10:50.194Z,247.00
2023-05-19T08:11:49.898Z,247.00
2023-05-19T08:12:49.949Z,253.00
2023-05-19T08:13:49.928Z,258.00
2023-05-19T08:14:49.929Z,258.00
2023-05-19T08:15:50.001Z,264.00
2023-05-19T08:16:50.759Z,270.00
2023-05-19T08:17:49.892Z,286.00
2023-05-19T08:18:50.779Z,320.00
2023-05-19T08:19:50.750Z,376.00
2023-05-19T08:20:49.883Z,495.00
2023-05-19T08:21:50.817Z,630.00
2023-05-19T08:22:49.792Z,703.00
2023-05-19T08:23:49.822Z,618.00
2023-05-19T08:24:52.832Z,675.00
2023-05-19T08:25:49.788Z,686.00
2023-05-19T08:26:49.772Z,596.00
2023-05-19T08:27:50.759Z,573.00
2023-05-19T08:28:50.393Z,680.00
2023-05-19T08:31:09.129Z,1091.00
2023-05-19T08:35:44.548Z,838.00
2023-05-19T08:38:19.309Z,630.00
2023-05-19T08:39:32.915Z,528.00
2023-05-19T08:40:20.734Z,562.00
2023-05-19T08:44:02.438Z,511.00
2023-05-19T08:44:48.077Z,466.00
2023-05-19T08:47:43.801Z,601.00
2023-05-19T08:51:06.444Z,669.00
2023-05-19T08:52:05.428Z,641.00
2023-05-19T08:53:05.451Z,630.00
2023-05-19T08:54:05.328Z,641.00
2023-05-19T08:56:57.398Z,421.00
2023-05-19T08:59:16.623Z,517.00
2023-05-19T09:00:16.101Z,540.00
2023-05-19T09:04:07.078Z,686.00
2023-05-19T09:09:37.015Z,787.00
2023-05-19T09:10:36.064Z,646.00
2023-05-19T09:11:36.053Z,618.00
2023-05-19T09:12:36.005Z,630.00
2023-05-19T09:13:36.018Z,731.00
2023-05-19T09:14:36.151Z,793.00
2023-05-19T09:15:36.188Z,860.00
2023-05-19T09:16:36.277Z,810.00
2023-05-19T09:17:36.272Z,888.00
2023-05-19T09:18:36.249Z,1029.00
2023-05-19T09:19:36.121Z,1260.00
2023-05-19T09:24:33.703Z,534.00
2023-05-19T09:25:33.815Z,579.00
2023-05-19T09:26:33.656Z,483.00
2023-05-19T09:27:33.546Z,562.00
2023-05-19T09:28:33.634Z,556.00
2023-05-19T09:29:33.847Z,601.00
2023-05-19T09:30:33.573Z,607.00
2023-05-19T09:40:23.932Z,961.00
2023-05-19T09:41:13.737Z,933.00
2023-05-19T09:42:13.774Z,922.00
2023-05-19T09:43:14.422Z,866.00
2023-05-19T09:44:13.710Z,855.00
2023-05-19T09:45:14.533Z,871.00
2023-05-19T09:46:14.997Z,922.00
2023-05-19T09:47:13.688Z,855.00
2023-05-19T09:48:13.716Z,928.00
2023-05-19T09:49:13.701Z,1018.00
2023-05-19T09:50:16.714Z,1102.00
2023-05-19T09:56:45.644Z,1321.00
2023-05-19T09:57:45.140Z,1327.00
2023-05-19T09:58:44.794Z,1327.00
2023-05-19T09:59:45.046Z,1293.00
2023-05-19T10:02:45.599Z,1192.00
2023-05-19T10:03:44.709Z,1147.00
2023-05-19T10:04:44.750Z,1091.00
2023-05-19T10:08:11.067Z,945.00
2023-05-19T10:09:11.136Z,815.00
2023-05-19T10:10:12.152Z,849.00
2023-05-19T10:11:11.588Z,928.00
2023-05-19T10:12:11.070Z,995.00
2023-05-19T10:13:11.481Z,1040.00
2023-05-19T10:14:11.005Z,1153.00
2023-05-19T10:15:11.518Z,1203.00
2023-05-19T10:20:52.499Z,978.00
2023-05-19T10:21:52.319Z,939.00
2023-05-19T10:22:52.175Z,916.00
2023-05-19T10:23:52.211Z,759.00
2023-05-19T10:24:52.223Z,1012.00
2023-05-19T10:25:52.234Z,736.00
2023-05-19T10:26:52.232Z,905.00
2023-05-19T10:27:52.247Z,922.00
2023-05-19T10:28:52.389Z,894.00
2023-05-19T10:29:52.742Z,826.00
2023-05-19T10:30:52.170Z,911.00
2023-05-19T10:31:52.246Z,1068.00
2023-05-19T10:32:52.245Z,1035.00
2023-05-19T10:33:52.200Z,1035.00
2023-05-19T10:34:52.248Z,1046.00
2023-05-19T10:35:52.144Z,1040.00
2023-05-19T10:36:52.130Z,1029.00
2023-05-19T10:37:52.121Z,1023.00
2023-05-19T10:38:52.089Z,1023.00
2023-05-19T10:39:52.819Z,1018.00
2023-05-19T10:40:52.204Z,1012.00
2023-05-19T10:41:52.193Z,1006.00
2023-05-19T10:42:52.212Z,1012.00
2023-05-19T10:43:52.261Z,1012.00
2023-05-19T10:44:52.334Z,995.00
2023-05-19T10:45:52.378Z,939.00
2023-05-19T10:46:54.155Z,905.00
2023-05-19T10:47:52.461Z,838.00
2023-05-19T10:48:52.366Z,793.00
2023-05-19T10:49:52.409Z,686.00
2023-05-19T10:50:52.415Z,635.00
2023-05-19T10:51:52.335Z,652.00
2023-05-19T10:52:52.364Z,630.00
2023-05-19T10:53:52.313Z,658.00
2023-05-19T10:54:52.297Z,697.00
2023-05-19T10:55:52.343Z,708.00
2023-05-19T10:56:52.335Z,753.00
2023-05-19T10:57:52.360Z,798.00
2023-05-19T10:58:52.386Z,832.00
2023-05-19T10:59:52.285Z,860.00
2023-05-19T11:00:52.281Z,860.00
2023-05-19T11:01:52.351Z,838.00
2023-05-19T11:02:52.918Z,815.00
2023-05-19T11:03:52.455Z,826.00
2023-05-19T11:04:52.361Z,826.00
2023-05-19T11:05:52.287Z,871.00
2023-05-19T11:06:52.273Z,883.00
2023-05-19T11:07:52.238Z,916.00
2023-05-19T11:08:52.289Z,928.00
2023-05-19T11:09:52.204Z,911.00
2023-05-19T11:10:52.200Z,956.00
2023-05-19T11:11:52.297Z,922.00
2023-05-19T11:12:52.317Z,922.00
2023-05-19T11:13:52.246Z,888.00
2023-05-19T11:14:52.228Z,877.00
2023-05-19T11:15:52.191Z,860.00
2023-05-19T11:16:52.241Z,843.00
2023-05-19T11:17:52.306Z,832.00
2023-05-19T11:18:52.202Z,855.00
2023-05-19T11:19:52.160Z,776.00
2023-05-19T11:20:52.225Z,804.00
2023-05-19T11:21:52.153Z,798.00
2023-05-19T11:22:52.205Z,770.00
2023-05-19T11:23:52.156Z,770.00
2023-05-19T11:24:52.236Z,736.00
2023-05-19T11:27:11.089Z,686.00
2023-05-19T11:28:11.071Z,680.00
2023-05-19T11:29:11.020Z,691.00
2023-05-19T11:30:11.074Z,736.00
2023-05-19T11:34:51.096Z,765.00
2023-05-19T11:35:51.143Z,736.00
2023-05-19T11:38:14.464Z,748.00
2023-05-19T11:42:40.961Z,753.00
2023-05-19T11:43:27.998Z,731.00
2023-05-19T11:50:56.980Z,669.00
2023-05-19T11:51:46.649Z,562.00
2023-05-19T11:52:46.658Z,500.00
2023-05-19T11:55:05.791Z,466.00
2023-05-19T11:56:05.805Z,455.00
2023-05-19T11:57:05.953Z,438.00
2023-05-19T11:58:06.120Z,410.00
2023-05-19T11:59:05.701Z,371.00
2023-05-19T12:00:05.667Z,382.00
2023-05-19T12:01:05.602Z,365.00
2023-05-19T12:02:05.609Z,365.00
2023-05-19T12:03:05.951Z,365.00
2023-05-19T12:04:05.723Z,360.00
2023-05-19T12:05:05.711Z,365.00
2023-05-19T12:06:05.645Z,365.00
2023-05-19T12:07:05.613Z,365.00
2023-05-19T12:08:05.579Z,371.00
2023-05-19T12:09:05.579Z,371.00
2023-05-19T12:10:05.670Z,376.00
2023-05-19T12:11:05.561Z,376.00
2023-05-19T12:12:05.571Z,382.00
2023-05-19T12:13:05.542Z,388.00
2023-05-19T12:14:05.553Z,388.00
2023-05-19T12:15:05.549Z,393.00
2023-05-19T12:16:05.836Z,388.00
2023-05-19T12:17:05.509Z,382.00
2023-05-19T12:18:05.565Z,371.00
2023-05-19T12:21:15.207Z,343.00
2023-05-19T12:22:15.105Z,337.00
2023-05-19T12:23:15.125Z,337.00
2023-05-19T12:24:15.079Z,337.00
2023-05-19T12:30:16.337Z,343.00
2023-05-19T12:31:16.329Z,343.00
2023-05-19T12:32:16.272Z,343.00
2023-05-19T12:33:16.342Z,348.00
2023-05-19T12:34:16.265Z,348.00
2023-05-19T12:37:01.752Z,354.00
2023-05-19T12:45:59.801Z,337.00
2023-05-19T12:46:51.848Z,337.00
2023-05-19T12:50:54.737Z,331.00
2023-05-19T12:51:54.422Z,326.00
2023-05-19T12:52:54.383Z,326.00
2023-05-19T12:59:10.472Z,315.00
2023-05-19T13:01:29.786Z,315.00
2023-05-19T13:02:29.472Z,315.00
2023-05-19T13:03:29.496Z,315.00
2023-05-19T13:04:29.378Z,315.00
2023-05-19T13:05:29.363Z,315.00
2023-05-19T13:06:29.353Z,309.00
2023-05-19T13:11:16.993Z,303.00
2023-05-19T13:12:16.809Z,303.00
2023-05-19T13:13:16.839Z,303.00
2023-05-19T13:14:16.760Z,303.00
2023-05-19T13:17:22.331Z,303.00
2023-05-19T13:18:22.057Z,298.00
2023-05-19T13:19:25.720Z,298.00
2023-05-19T13:22:29.474Z,298.00
2023-05-19T13:23:21.898Z,298.00
2023-05-19T13:24:21.818Z,298.00
2023-05-19T13:25:21.813Z,298.00
2023-05-19T13:26:21.741Z,298.00
2023-05-19T13:27:21.735Z,298.00
2023-05-19T13:28:23.517Z,292.00
2023-05-19T13:29:22.063Z,292.00
2023-05-19T13:30:21.800Z,292.00
2023-05-19T13:31:21.796Z,292.00
2023-05-19T13:32:21.782Z,286.00
2023-05-19T13:33:21.840Z,286.00
2023-05-19T13:34:21.709Z,286.00
2023-05-19T13:35:21.703Z,286.00
2023-05-19T13:36:21.751Z,281.00
2023-05-19T13:37:21.784Z,275.00
2023-05-19T13:38:21.711Z,270.00
2023-05-19T13:39:21.749Z,270.00
2023-05-19T13:40:21.721Z,264.00
2023-05-19T13:41:21.751Z,264.00
2023-05-19T13:42:21.750Z,258.00
2023-05-19T13:51:32.406Z,236.00
2023-05-19T13:52:31.977Z,236.00
2023-05-19T13:56:50.395Z,236.00
2023-05-19T13:59:09.644Z,230.00
2023-05-19T14:00:09.431Z,230.00
2023-05-19T14:01:09.467Z,230.00
2023-05-19T14:02:09.564Z,230.00
2023-05-19T14:04:59.623Z,236.00
2023-05-19T14:07:18.017Z,230.00
2023-05-19T14:08:18.222Z,225.00
2023-05-19T14:09:17.913Z,219.00
2023-05-19T14:10:17.919Z,213.00
2023-05-19T14:11:17.926Z,213.00
2023-05-19T14:12:17.968Z,219.00
2023-05-19T14:13:32.535Z,219.00
2023-05-19T14:14:18.856Z,219.00
2023-05-19T14:15:17.857Z,219.00
2023-05-19T14:16:17.913Z,219.00
2023-05-19T14:17:18.564Z,219.00
2023-05-19T14:18:17.916Z,208.00
2023-05-19T14:19:17.876Z,208.00
2023-05-19T14:20:17.890Z,208.00
2023-05-19T14:21:18.338Z,202.00
2023-05-19T14:24:30.352Z,196.00
2023-05-19T14:27:24.249Z,191.00
2023-05-19T14:28:24.082Z,191.00
2023-05-19T14:30:43.452Z,185.00
2023-05-19T14:31:43.338Z,180.00
2023-05-19T14:34:02.707Z,180.00
2023-05-19T14:35:02.570Z,180.00
2023-05-19T14:36:02.718Z,180.00
2023-05-19T14:38:27.097Z,180.00
2023-05-19T14:50:38.198Z,247.00
2023-05-19T14:51:38.076Z,247.00
2023-05-19T14:52:38.088Z,247.00
2023-05-19T14:53:38.089Z,241.00
2023-05-19T14:54:38.902Z,236.00
2023-05-19T14:55:38.903Z,196.00
2023-05-19T14:56:38.332Z,247.00
2023-05-19T14:57:38.433Z,236.00
2023-05-19T14:58:38.130Z,230.00
2023-05-19T14:59:38.130Z,225.00
2023-05-19T15:00:38.025Z,230.00
2023-05-19T15:01:38.074Z,236.00
2023-05-19T15:02:38.084Z,241.00
2023-05-19T15:03:38.092Z,241.00
2023-05-19T15:04:38.023Z,236.00
2023-05-19T15:05:38.010Z,236.00
2023-05-19T15:09:19.857Z,191.00
2023-05-19T15:12:42.608Z,202.00
2023-05-19T15:16:08.253Z,236.00
2023-05-19T15:16:56.845Z,253.00
2023-05-19T15:17:55.891Z,241.00
2023-05-19T15:18:55.914Z,247.00
2023-05-19T15:19:55.906Z,213.00
2023-05-19T15:20:55.803Z,191.00
2023-05-19T15:26:37.962Z,151.00
2023-05-19T15:27:37.728Z,146.00
2023-05-19T15:28:37.716Z,140.00
2023-05-19T15:29:37.689Z,135.00
2023-05-19T15:30:37.873Z,135.00
2023-05-19T15:31:38.475Z,135.00
2023-05-19T15:32:37.778Z,140.00
2023-05-19T15:33:37.985Z,135.00
2023-05-19T15:36:47.198Z,140.00
2023-05-19T15:42:30.248Z,129.00
2023-05-19T15:43:29.509Z,123.00
2023-05-19T15:44:29.513Z,129.00
2023-05-19T15:45:29.439Z,129.00
2023-05-19T15:46:29.786Z,129.00
2023-05-19T15:47:29.685Z,129.00
2023-05-19T15:49:48.741Z,123.00
2023-05-19T15:56:50.356Z,151.00
2023-05-19T15:57:50.289Z,123.00
2023-05-19T16:00:09.771Z,331.00
2023-05-19T16:05:04.955Z,247.00
2023-05-19T16:07:10.643Z,225.00
2023-05-19T16:08:10.645Z,146.00
2023-05-19T16:09:10.616Z,129.00
2023-05-19T16:12:11.995Z,135.00
2023-05-19T16:13:11.921Z,135.00
2023-05-19T16:14:12.010Z,135.00
2023-05-19T16:17:01.379Z,95.00
2023-05-19T16:18:00.508Z,90.00
2023-05-19T16:19:00.326Z,90.00
2023-05-19T16:27:37.270Z,73.00
2023-05-19T16:28:36.985Z,73.00
2023-05-19T16:29:36.990Z,73.00
2023-05-19T16:30:37.521Z,67.00
2023-05-19T16:32:56.436Z,61.00
2023-05-19T16:35:40.177Z,56.00
2023-05-19T16:36:40.083Z,56.00
2023-05-19T16:39:37.578Z,50.00
2023-05-19T16:41:55.515Z,45.00
2023-05-19T16:42:55.415Z,45.00
2023-05-19T16:43:55.320Z,45.00
2023-05-19T16:46:47.262Z,39.00
2023-05-19T16:51:24.570Z,50.00
2023-05-19T16:52:12.074Z,50.00
2023-05-19T16:54:31.448Z,50.00
2023-05-19T16:55:31.617Z,50.00
2023-05-19T17:00:29.524Z,39.00
2023-05-19T17:01:29.625Z,39.00
2023-05-19T17:02:29.672Z,39.00
2023-05-19T17:03:29.773Z,39.00
2023-05-19T17:04:30.763Z,33.00
2023-05-19T17:05:30.247Z,33.00
2023-05-19T17:06:29.479Z,33.00
2023-05-19T17:07:29.456Z,33.00
2023-05-19T17:08:29.508Z,28.00
2023-05-19T17:09:29.437Z,33.00
2023-05-19T17:10:29.422Z,33.00
2023-05-19T17:11:29.495Z,33.00
2023-05-19T17:12:29.426Z,33.00
2023-05-19T17:13:29.417Z,33.00
2023-05-19T17:14:29.397Z,33.00
2023-05-19T17:15:29.405Z,33.00
2023-05-19T17:16:29.444Z,33.00
2023-05-19T17:17:29.424Z,33.00
2023-05-19T17:18:29.345Z,33.00
2023-05-19T17:19:29.406Z,28.00
2023-05-19T17:20:29.464Z,28.00
2023-05-19T17:21:29.364Z,28.00
2023-05-19T17:22:30.327Z,28.00
2023-05-19T17:23:29.450Z,28.00
2023-05-19T17:24:29.353Z,33.00
2023-05-19T17:25:29.370Z,33.00
2023-05-19T17:26:29.328Z,33.00
2023-05-19T17:27:29.309Z,33.00
2023-05-19T17:28:29.326Z,33.00
2023-05-19T17:29:29.325Z,39.00
2023-05-19T17:30:29.313Z,39.00
2023-05-19T17:31:29.324Z,39.00
2023-05-19T17:32:30.089Z,39.00
2023-05-19T17:34:49.408Z,39.00
2023-05-19T17:44:02.403Z,39.00
2023-05-19T17:45:01.982Z,39.00
2023-05-19T17:51:53.253Z,33.00
2023-05-19T17:56:45.991Z,28.00
2023-05-19T17:57:45.909Z,28.00
2023-05-19T17:58:45.906Z,28.00
2023-05-19T18:01:33.665Z,28.00
2023-05-19T18:02:33.444Z,22.00
2023-05-19T18:03:33.631Z,22.00
2023-05-19T18:04:33.346Z,22.00
2023-05-19T18:06:52.945Z,22.00
2023-05-19T18:07:52.764Z,16.00
2023-05-19T18:08:52.818Z,16.00
2023-05-19T18:12:33.164Z,16.00
2023-05-19T18:13:32.991Z,16.00
2023-05-19T18:20:17.171Z,11.00
2023-05-19T18:21:16.989Z,11.00
2023-05-19T18:22:16.971Z,11.00
2023-05-19T18:30:26.811Z,5.00
2023-05-19T18:32:44.823Z,5.00
2023-05-19T18:33:44.693Z,5.00
2023-05-19T18:34:44.649Z,5.00
2023-05-19T18:35:44.634Z,5.00
2023-05-19T18:38:36.856Z,0.00
2023-05-19T18:39:36.696Z,0.00
2023-05-19T18:40:37.285Z,0.00
2023-05-19T18:41:36.711Z,0.00
2023-05-19T18:50:03.317Z,0.00
2023-05-19T18:53:34.144Z,0.00
2023-05-19T18:54:33.682Z,0.00
2023-05-19T18:59:42.640Z,0.00
2023-05-19T19:07:13.668Z,0.00
2023-05-19T19:08:13.375Z,0.00
2023-05-19T19:10:33.318Z,0.00
2023-05-19T19:11:33.149Z,0.00
2023-05-19T19:12:33.107Z,0.00
2023-05-19T19:14:52.691Z,0.00
2023-05-19T19:17:41.570Z,0.00
2023-05-19T19:20:00.787Z,0.00
2023-05-19T19:21:01.080Z,0.00
2023-05-19T19:22:00.672Z,0.00
2023-05-19T19:23:00.628Z,0.00
2023-05-19T19:24:00.581Z,0.00
2023-05-19T19:25:00.591Z,0.00
2023-05-19T19:26:00.670Z,0.00
2023-05-19T19:27:00.593Z,0.00
2023-05-19T19:28:00.595Z,0.00
2023-05-19T19:29:00.645Z,0.00
2023-05-19T19:30:00.614Z,0.00
2023-05-19T19:31:00.609Z,0.00
2023-05-19T19:32:00.733Z,0.00
2023-05-19T19:33:00.563Z,0.00
2023-05-19T19:34:00.534Z,0.00
2023-05-19T19:35:00.546Z,0.00
2023-05-19T19:36:00.532Z,0.00
2023-05-19T19:37:00.571Z,0.00
2023-05-19T19:38:00.570Z,0.00
2023-05-19T19:39:00.537Z,0.00
2023-05-19T19:40:00.577Z,0.00
2023-05-19T19:41:00.480Z,0.00
2023-05-19T19:42:00.495Z,0.00
2023-05-19T19:43:00.489Z,0.00
2023-05-19T19:44:00.491Z,0.00
2023-05-19T19:45:00.466Z,0.00
2023-05-19T19:46:00.871Z,0.00
2023-05-19T19:47:00.415Z,0.00
2023-05-19T19:48:00.466Z,0.00
2023-05-19T19:49:00.471Z,0.00
2023-05-19T19:50:01.302Z,0.00
2023-05-19T19:51:00.405Z,0.00
2023-05-19T19:52:00.386Z,0.00
2023-05-19T19:53:00.378Z,0.00
2023-05-19T19:54:00.369Z,0.00
2023-05-19T19:55:00.512Z,0.00
2023-05-19T19:56:01.319Z,0.00
2023-05-19T19:57:00.385Z,0.00
2023-05-19T19:58:00.401Z,0.00
2023-05-19T19:59:00.386Z,0.00
2023-05-19T20:00:00.402Z,0.00
2023-05-19T20:01:00.418Z,0.00
2023-05-19T20:02:00.480Z,0.00
2023-05-19T20:03:04.234Z,0.00
2023-05-19T20:06:39.327Z,0.00
2023-05-19T20:07:39.249Z,0.00
2023-05-19T20:12:27.900Z,0.00
2023-05-19T20:13:28.576Z,0.00
2023-05-19T20:14:27.693Z,0.00
2023-05-19T20:17:22.464Z,0.00
2023-05-19T20:18:22.154Z,0.00
2023-05-19T20:19:22.311Z,0.00
2023-05-19T20:20:22.243Z,0.00
2023-05-19T20:21:22.133Z,0.00
2023-05-19T20:22:22.123Z,0.00